createdAt,value
2023-05-02T00:00:04.194Z,3.10
2023-05-02T00:02:31.694Z,2.50
2023-05-02T00:04:59.249Z,3.28
2023-05-02T00:07:26.971Z,3.05
2023-05-02T00:09:55.294Z,2.55
2023-05-02T00:12:23.227Z,3.28
2023-05-02T00:14:50.593Z,3.30
2023-05-02T00:17:19.904Z,2.97
2023-05-02T00:19:47.768Z,2.78
2023-05-02T00:22:15.166Z,3.03
2023-05-02T00:24:42.526Z,3.08
2023-05-02T00:27:10.195Z,3.15
2023-05-02T00:29:37.559Z,3.00
2023-05-02T00:32:06.653Z,3.47
2023-05-02T00:34:34.172Z,3.13
2023-05-02T00:37:01.726Z,3.88
2023-05-02T00:39:29.601Z,3.80
2023-05-02T00:42:00.796Z,3.92
2023-05-02T00:44:28.845Z,3.67
2023-05-02T00:46:57.188Z,4.05
2023-05-02T00:49:24.876Z,4.43
2023-05-02T00:51:54.500Z,4.25
2023-05-02T00:54:22.068Z,4.57
2023-05-02T00:56:49.387Z,4.57
2023-05-02T00:59:18.028Z,4.65
2023-05-02T01:02:03.893Z,4.82
2023-05-02T01:04:50.529Z,4.57
2023-05-02T01:07:54.834Z,4.85
2023-05-02T01:10:34.674Z,4.80
2023-05-02T01:13:18.487Z,4.70
2023-05-02T01:15:48.400Z,5.45
2023-05-02T01:18:18.621Z,5.47
2023-05-02T01:20:48.238Z,5.30
2023-05-02T01:23:47.415Z,5.15
2023-05-02T01:26:41.636Z,7.05
2023-05-02T01:29:10.052Z,5.75
2023-05-02T01:31:42.186Z,5.65
2023-05-02T01:34:11.272Z,5.68
2023-05-02T01:36:45.182Z,5.22
2023-05-02T01:39:19.615Z,6.22
2023-05-02T01:41:50.557Z,6.72
2023-05-02T01:44:23.097Z,7.85
2023-05-02T01:46:53.365Z,7.88
2023-05-02T01:49:22.464Z,8.48
2023-05-02T01:51:51.970Z,7.55
2023-05-02T01:54:23.124Z,7.20
2023-05-02T01:56:52.232Z,8.85
2023-05-02T01:59:22.727Z,9.45
2023-05-02T02:01:52.722Z,9.50
2023-05-02T02:04:22.180Z,8.90
2023-05-02T02:15:29.055Z,9.13
2023-05-02T02:18:11.312Z,7.55
2023-05-02T02:20:43.140Z,7.97
2023-05-02T02:23:11.085Z,8.27
2023-05-02T02:25:39.080Z,10.10
2023-05-02T02:28:07.736Z,8.75
2023-05-02T02:30:35.200Z,10.30
2023-05-02T02:33:02.695Z,9.43
2023-05-02T02:35:37.638Z,9.82
2023-05-02T02:38:28.161Z,11.98
2023-05-02T02:41:12.549Z,9.85
2023-05-02T02:43:58.601Z,10.63
2023-05-02T02:46:34.824Z,10.53
2023-05-02T02:49:27.305Z,12.77
2023-05-02T02:51:59.014Z,15.35
2023-05-02T02:54:39.972Z,14.82
2023-05-02T02:57:46.437Z,16.23
2023-05-02T03:00:21.358Z,16.30
2023-05-02T03:02:49.117Z,16.30
2023-05-02T03:05:17.326Z,17.05
2023-05-02T03:07:44.829Z,16.48
2023-05-02T03:10:12.254Z,17.48
2023-05-02T03:12:43.666Z,16.33
2023-05-02T03:15:29.692Z,16.95
2023-05-02T03:17:57.347Z,18.30
2023-05-02T03:20:24.656Z,17.67
2023-05-02T03:22:52.534Z,18.65
2023-05-02T03:25:19.888Z,18.45
2023-05-02T03:27:47.192Z,16.85
2023-05-02T03:30:14.576Z,16.95
2023-05-02T03:32:42.192Z,17.65
2023-05-02T03:35:09.622Z,17.15
2023-05-02T03:37:36.932Z,17.63
2023-05-02T03:40:04.704Z,18.48
2023-05-02T03:42:32.128Z,16.48
2023-05-02T03:44:59.537Z,17.65
2023-05-02T03:47:27.007Z,17.10
2023-05-02T03:49:54.622Z,16.98
2023-05-02T03:52:21.939Z,16.48
2023-05-02T03:54:49.944Z,16.17
2023-05-02T03:57:17.524Z,16.05
2023-05-02T03:59:47.875Z,14.85
2023-05-02T04:02:16.289Z,14.48
2023-05-02T04:04:43.962Z,13.57
2023-05-02T04:07:18.141Z,10.57
2023-05-02T04:09:46.107Z,9.07
2023-05-02T04:12:15.523Z,8.10
2023-05-02T04:14:43.419Z,7.80
2023-05-02T04:17:10.956Z,6.32
2023-05-02T04:19:38.353Z,6.75
2023-05-02T04:22:05.741Z,6.65
2023-05-02T04:24:33.328Z,5.72
2023-05-02T04:27:01.497Z,6.18
2023-05-02T04:29:28.834Z,5.20
2023-05-02T04:31:56.416Z,5.50
2023-05-02T04:34:23.808Z,5.93
2023-05-02T04:36:51.077Z,5.45
2023-05-02T04:39:18.678Z,5.38
2023-05-02T04:41:47.069Z,4.75
2023-05-02T04:44:14.396Z,5.70
2023-05-02T04:46:41.776Z,5.38
2023-05-02T04:49:10.330Z,4.63
2023-05-02T04:51:37.699Z,4.32
2023-05-02T04:54:05.083Z,4.47
2023-05-02T04:56:32.761Z,4.05
2023-05-02T04:59:00.582Z,4.53
2023-05-02T05:01:28.213Z,4.00
2023-05-02T05:03:56.648Z,4.68
2023-05-02T05:06:24.699Z,4.60
2023-05-02T05:08:52.352Z,4.20
2023-05-02T05:11:19.696Z,4.20
2023-05-02T05:13:47.057Z,6.55
2023-05-02T05:16:14.946Z,5.03
2023-05-02T05:18:42.566Z,4.13
2023-05-02T05:21:11.156Z,3.95
2023-05-02T05:23:38.924Z,4.65
2023-05-02T05:26:13.135Z,4.63
2023-05-02T05:28:41.545Z,4.68
2023-05-02T05:31:14.013Z,4.78
2023-05-02T05:33:43.120Z,3.75
2023-05-02T05:36:12.863Z,5.10
2023-05-02T05:38:40.662Z,4.47
2023-05-02T05:41:08.641Z,5.00
2023-05-02T05:43:37.936Z,5.47
2023-05-02T05:46:06.076Z,6.05
2023-05-02T05:48:33.493Z,5.50
2023-05-02T05:51:05.695Z,5.50
2023-05-02T05:53:34.277Z,5.72
2023-05-02T05:56:09.945Z,5.57
2023-05-02T05:58:38.198Z,5.70
2023-05-02T06:01:05.979Z,5.97
2023-05-02T06:03:33.696Z,5.85
2023-05-02T06:06:01.403Z,5.50
2023-05-02T06:08:28.725Z,5.38
2023-05-02T06:10:56.140Z,5.00
2023-05-02T06:13:23.512Z,4.90
2023-05-02T06:15:51.188Z,5.22
2023-05-02T06:18:18.583Z,5.75
2023-05-02T06:20:46.088Z,6.03
2023-05-02T06:23:13.395Z,5.30
2023-05-02T06:25:42.049Z,6.88
2023-05-02T06:28:09.655Z,6.47
2023-05-02T06:30:36.996Z,6.30
2023-05-02T06:33:05.159Z,7.28
2023-05-02T06:35:32.529Z,6.80
2023-05-02T06:38:00.036Z,7.93
2023-05-02T06:40:27.511Z,6.82
2023-05-02T06:42:55.084Z,7.80
2023-05-02T06:45:22.417Z,10.18
2023-05-02T06:47:50.029Z,7.43
2023-05-02T06:50:17.428Z,8.13
2023-05-02T06:52:44.756Z,7.68
2023-05-02T06:55:12.271Z,9.65
2023-05-02T06:57:39.733Z,10.90
2023-05-02T07:00:07.643Z,9.18
2023-05-02T07:02:35.029Z,9.93
2023-05-02T07:05:02.340Z,10.13
2023-05-02T07:07:29.614Z,9.70
2023-05-02T07:09:56.900Z,9.30
2023-05-02T07:12:24.229Z,7.88
2023-05-02T07:14:51.663Z,9.10
2023-05-02T07:17:19.606Z,8.68
2023-05-02T07:19:46.904Z,8.10
2023-05-02T07:22:14.245Z,6.72
2023-05-02T07:24:42.016Z,7.45
2023-05-02T07:27:10.065Z,6.45
2023-05-02T07:29:37.454Z,8.50
2023-05-02T07:32:06.212Z,7.60
2023-05-02T07:34:33.590Z,8.18
2023-05-02T07:37:00.986Z,8.57
2023-05-02T07:39:28.767Z,8.02
2023-05-02T07:41:56.627Z,6.80
2023-05-02T07:44:24.401Z,7.68
2023-05-02T07:46:52.961Z,7.72
2023-05-02T07:49:20.730Z,7.35
2023-05-02T07:51:48.170Z,8.05
2023-05-02T07:54:17.027Z,9.38
2023-05-02T07:56:45.274Z,8.30
2023-05-02T07:59:12.888Z,8.93
2023-05-02T08:01:41.625Z,7.93
2023-05-02T08:04:13.532Z,7.93
2023-05-02T08:06:41.098Z,7.57
2023-05-02T08:09:09.657Z,7.43
2023-05-02T08:11:37.179Z,6.40
2023-05-02T08:14:04.666Z,6.85
2023-05-02T08:16:32.147Z,6.38
2023-05-02T08:18:59.491Z,5.03
2023-05-02T08:21:27.688Z,5.53
2023-05-02T08:23:58.787Z,6.25
2023-05-02T08:26:26.948Z,4.50
2023-05-02T08:28:55.678Z,4.80
2023-05-02T08:31:23.046Z,6.22
2023-05-02T08:33:50.639Z,5.07
2023-05-02T08:36:18.735Z,5.07
2023-05-02T08:38:46.860Z,4.72
2023-05-02T08:41:17.420Z,4.80
2023-05-02T08:43:47.049Z,5.13
2023-05-02T08:46:16.192Z,4.15
2023-05-02T08:48:48.138Z,4.00
2023-05-02T08:51:17.021Z,4.20
2023-05-02T08:53:45.597Z,3.83
2023-05-02T08:56:13.416Z,3.63
2023-05-02T08:58:44.127Z,3.47
2023-05-02T09:01:17.902Z,4.07
2023-05-02T09:03:47.732Z,3.22
2023-05-02T09:06:23.291Z,3.03
2023-05-02T09:08:54.666Z,3.27
2023-05-02T09:11:22.293Z,3.67
2023-05-02T09:13:51.830Z,3.00
2023-05-02T09:16:25.433Z,3.72
2023-05-02T09:18:57.805Z,3.40
2023-05-02T09:21:35.011Z,3.45
2023-05-02T09:24:04.011Z,3.55
2023-05-02T09:26:34.500Z,2.90
2023-05-02T09:29:04.217Z,3.13
2023-05-02T09:34:14.363Z,2.90
2023-05-02T09:36:42.953Z,3.08
2023-05-02T09:39:11.965Z,3.13
2023-05-02T09:41:48.126Z,4.43
2023-05-02T10:07:02.757Z,3.93
2023-05-02T10:09:35.896Z,3.42
2023-05-02T10:12:05.309Z,3.80
2023-05-02T10:14:39.480Z,3.00
2023-05-02T10:17:21.487Z,4.07
2023-05-02T10:20:01.174Z,3.70
2023-05-02T10:22:28.915Z,4.50
2023-05-02T10:24:59.454Z,4.28
2023-05-02T10:27:27.219Z,4.57
2023-05-02T10:29:56.634Z,3.83
2023-05-02T10:32:27.668Z,3.08
2023-05-02T10:35:02.839Z,3.70
2023-05-02T10:37:33.621Z,3.65
2023-05-02T10:40:01.441Z,3.80
2023-05-02T10:42:29.863Z,3.63
2023-05-02T10:44:57.364Z,2.47
2023-05-02T10:47:27.231Z,3.03
2023-05-02T10:50:03.184Z,2.85
2023-05-02T10:52:30.745Z,3.08
2023-05-02T10:55:19.956Z,4.35
2023-05-02T10:58:02.462Z,3.33
2023-05-02T11:00:34.056Z,3.17
2023-05-02T11:03:02.365Z,3.25
2023-05-02T11:05:30.566Z,3.90
2023-05-02T11:08:17.182Z,3.13
2023-05-02T11:10:46.506Z,2.30
2023-05-02T11:13:14.162Z,3.42
2023-05-02T11:15:41.485Z,4.28
2023-05-02T11:18:15.956Z,3.05
2023-05-02T11:20:46.413Z,4.00
2023-05-02T11:23:16.908Z,2.60
2023-05-02T11:25:45.649Z,3.10
2023-05-02T11:28:34.649Z,2.70
2023-05-02T11:31:02.477Z,3.88
2023-05-02T11:33:29.875Z,2.88
2023-05-02T11:35:58.264Z,2.58
2023-05-02T11:38:27.582Z,3.97
2023-05-02T11:40:57.541Z,3.63
2023-05-02T11:43:28.238Z,3.40
2023-05-02T11:45:59.882Z,3.35
2023-05-02T11:48:28.032Z,2.70
2023-05-02T11:50:57.729Z,3.83
2023-05-02T11:53:28.123Z,3.28
2023-05-02T11:56:05.166Z,3.45
2023-05-02T11:58:34.123Z,3.08
2023-05-02T12:01:17.616Z,3.00
2023-05-02T12:03:45.854Z,2.67
2023-05-02T12:06:16.115Z,2.90
2023-05-02T12:08:45.184Z,2.60
2023-05-02T12:11:16.880Z,3.40
2023-05-02T12:13:50.122Z,3.03
2023-05-02T12:16:18.528Z,3.17
2023-05-02T12:18:47.259Z,2.53
2023-05-02T12:21:14.941Z,2.53
2023-05-02T12:23:42.662Z,2.72
2023-05-02T12:26:33.692Z,3.05
2023-05-02T12:29:03.968Z,2.80
2023-05-02T12:31:32.333Z,2.95
2023-05-02T12:34:01.399Z,3.58
2023-05-02T12:36:29.524Z,2.65
2023-05-02T12:38:59.672Z,2.88
2023-05-02T12:41:38.383Z,2.58
2023-05-02T12:44:08.076Z,2.38
2023-05-02T12:46:36.318Z,2.97
2023-05-02T12:49:12.388Z,3.00
2023-05-02T12:51:52.895Z,3.22
2023-05-02T12:54:23.307Z,3.30
2023-05-02T12:56:52.375Z,2.80
2023-05-02T12:59:28.400Z,3.78
2023-05-02T13:01:55.756Z,4.18
2023-05-02T13:04:33.824Z,3.15
2023-05-02T13:07:03.498Z,3.78
2023-05-02T13:09:33.242Z,2.83
2023-05-02T13:12:00.946Z,2.92
2023-05-02T13:14:28.244Z,3.05
2023-05-02T13:16:55.778Z,3.15
2023-05-02T13:19:23.143Z,3.13
2023-05-02T13:21:50.632Z,3.22
2023-05-02T13:24:17.968Z,3.88
2023-05-02T13:26:46.170Z,3.40
2023-05-02T13:29:13.460Z,3.00
2023-05-02T13:31:40.806Z,3.53
2023-05-02T13:34:08.416Z,2.95
2023-05-02T13:36:36.461Z,2.92
2023-05-02T13:39:04.507Z,3.22
2023-05-02T13:41:32.057Z,3.20
2023-05-02T13:43:59.380Z,3.08
2023-05-02T13:46:26.893Z,3.00
2023-05-02T13:48:54.244Z,2.63
2023-05-02T13:51:21.669Z,2.83
2023-05-02T13:53:48.967Z,3.85
2023-05-02T13:56:16.556Z,2.85
2023-05-02T13:58:44.828Z,3.08
2023-05-02T14:01:12.108Z,2.92
2023-05-02T14:03:41.132Z,2.47
2023-05-02T14:06:08.966Z,3.13
2023-05-02T14:08:41.350Z,2.92
2023-05-02T14:11:08.845Z,3.63
2023-05-02T14:13:36.334Z,3.15
2023-05-02T14:16:03.926Z,2.80
2023-05-02T14:18:31.526Z,2.63
2023-05-02T14:21:00.224Z,3.08
2023-05-02T14:23:30.620Z,2.60
2023-05-02T14:25:58.282Z,3.90
2023-05-02T14:28:27.181Z,4.90
2023-05-02T14:30:58.609Z,3.05
2023-05-02T14:33:26.875Z,2.75
2023-05-02T14:35:55.622Z,3.88
2023-05-02T14:38:25.546Z,3.67
2023-05-02T14:40:52.886Z,3.55
2023-05-02T14:43:20.467Z,3.97
2023-05-02T14:45:48.146Z,3.70
2023-05-02T14:48:17.468Z,3.97
2023-05-02T14:50:45.280Z,2.95
2023-05-02T14:53:13.152Z,3.38
2023-05-02T14:55:40.727Z,2.75
2023-05-02T14:58:10.249Z,2.88
2023-05-02T15:00:41.344Z,3.03
2023-05-02T15:03:09.972Z,2.80
2023-05-02T15:05:37.747Z,2.65
2023-05-02T15:08:05.826Z,3.30
2023-05-02T15:10:37.627Z,3.17
2023-05-02T15:13:06.070Z,3.90
2023-05-02T15:15:33.607Z,2.75
2023-05-02T15:18:01.086Z,2.75
2023-05-02T15:20:28.507Z,2.63
2023-05-02T15:22:55.917Z,2.55
2023-05-02T15:25:23.302Z,3.20
2023-05-02T15:27:50.613Z,2.78
2023-05-02T15:30:18.259Z,3.40
2023-05-02T15:32:45.786Z,3.50
2023-05-02T15:35:14.508Z,2.90
2023-05-02T15:37:42.091Z,2.95
2023-05-02T15:40:10.840Z,3.65
2023-05-02T15:42:38.562Z,3.25
2023-05-02T15:45:06.748Z,2.55
2023-05-02T15:47:34.295Z,2.45
2023-05-02T15:50:02.385Z,3.10
2023-05-02T15:52:30.684Z,2.70
2023-05-02T15:54:59.491Z,2.72
2023-05-02T15:57:27.731Z,3.17
2023-05-02T15:59:55.297Z,2.55
2023-05-02T16:02:22.803Z,2.25
2023-05-02T16:04:50.289Z,2.38
2023-05-02T16:07:17.656Z,2.08
2023-05-02T16:09:45.261Z,3.03
2023-05-02T16:12:12.914Z,2.35
2023-05-02T16:14:40.358Z,2.60
2023-05-02T16:17:07.746Z,2.20
2023-05-02T16:19:35.101Z,2.10
2023-05-02T16:22:02.444Z,2.58
2023-05-02T16:24:30.238Z,2.05
2023-05-02T16:26:57.666Z,1.98
2023-05-02T16:29:26.122Z,2.22
2023-05-02T16:31:53.574Z,2.50
2023-05-02T16:34:21.149Z,2.55
2023-05-02T16:36:49.140Z,2.78
2023-05-02T16:39:16.617Z,2.58
2023-05-02T16:41:45.485Z,2.00
2023-05-02T16:44:12.839Z,3.03
2023-05-02T16:46:41.598Z,2.35
2023-05-02T16:49:08.993Z,2.42
2023-05-02T16:51:36.557Z,1.95
2023-05-02T16:54:04.357Z,2.10
2023-05-02T16:56:31.673Z,2.88
2023-05-02T16:58:59.122Z,3.22
2023-05-02T17:01:26.553Z,3.10
2023-05-02T17:03:53.909Z,2.78
2023-05-02T17:06:21.427Z,2.63
2023-05-02T17:08:49.091Z,2.70
2023-05-02T17:11:17.682Z,3.13
2023-05-02T17:13:47.269Z,3.20
2023-05-02T17:16:14.814Z,2.88
2023-05-02T17:18:42.239Z,2.83
2023-05-02T17:21:09.979Z,2.83
2023-05-02T17:23:38.126Z,3.70
2023-05-02T17:26:14.212Z,3.33
2023-05-02T17:28:43.774Z,3.50
2023-05-02T17:31:12.033Z,3.47
2023-05-02T17:33:39.792Z,3.53
2023-05-02T17:36:07.500Z,2.92
2023-05-02T17:38:35.072Z,3.05
2023-05-02T17:41:02.565Z,2.92
2023-05-02T17:43:30.272Z,2.85
2023-05-02T17:45:57.671Z,3.10
2023-05-02T17:48:25.089Z,3.60
2023-05-02T17:50:53.681Z,3.55
2023-05-02T17:53:21.075Z,3.13
2023-05-02T17:55:48.398Z,3.75
2023-05-02T17:58:16.153Z,3.58
2023-05-02T18:00:43.879Z,3.13
2023-05-02T18:03:11.329Z,3.30
2023-05-02T18:05:39.870Z,3.78
2023-05-02T18:08:07.642Z,3.60
2023-05-02T18:10:38.856Z,3.20
2023-05-02T18:13:06.614Z,4.75
2023-05-02T18:15:33.982Z,4.07
2023-05-02T18:18:01.377Z,4.32
2023-05-02T18:20:28.797Z,5.10
2023-05-02T18:22:59.054Z,4.35
2023-05-02T18:25:26.752Z,3.70
2023-05-02T18:27:54.379Z,4.10
2023-05-02T18:30:21.743Z,3.92
2023-05-02T18:32:49.080Z,3.95
2023-05-02T18:35:16.543Z,4.28
2023-05-02T18:37:44.056Z,3.97
2023-05-02T18:40:12.735Z,4.57
2023-05-02T18:42:40.134Z,4.80
2023-05-02T18:45:07.884Z,4.63
2023-05-02T18:47:36.527Z,3.80
2023-05-02T18:50:05.141Z,4.80
2023-05-02T18:52:32.698Z,3.50
2023-05-02T18:55:02.228Z,4.00
2023-05-02T18:57:29.865Z,4.55
2023-05-02T18:59:57.746Z,4.60
2023-05-02T19:02:25.687Z,4.43
2023-05-02T19:04:53.265Z,5.30
2023-05-02T19:07:20.865Z,4.40
2023-05-02T19:09:49.288Z,3.92
2023-05-02T19:12:17.107Z,4.97
2023-05-02T19:14:45.050Z,4.63
2023-05-02T19:17:12.575Z,4.78
2023-05-02T19:19:40.177Z,4.75
2023-05-02T19:22:07.890Z,4.30
2023-05-02T19:24:36.325Z,5.03
2023-05-02T19:27:07.850Z,4.53
2023-05-02T19:29:35.435Z,4.50
2023-05-02T19:32:03.654Z,4.40
2023-05-02T19:34:31.968Z,3.95
2023-05-02T19:36:59.443Z,4.65
2023-05-02T19:39:27.005Z,4.28
2023-05-02T19:41:54.664Z,4.30
2023-05-02T19:44:23.756Z,5.00
2023-05-02T19:46:51.262Z,4.38
2023-05-02T19:49:19.718Z,3.55
2023-05-02T19:51:47.164Z,4.32
2023-05-02T19:54:14.640Z,4.15
2023-05-02T19:56:43.564Z,3.95
2023-05-02T20:03:14.670Z,3.95
2023-05-02T20:05:51.822Z,4.25
2023-05-02T20:08:19.543Z,3.78
2023-05-02T20:10:48.275Z,4.20
2023-05-02T20:13:16.059Z,4.25
2023-05-02T20:16:30.312Z,3.60
2023-05-02T20:18:58.292Z,4.60
2023-05-02T20:21:27.003Z,4.50
2023-05-02T20:23:54.775Z,4.22
2023-05-02T20:26:22.524Z,5.03
2023-05-02T20:28:50.073Z,3.95
2023-05-02T20:31:17.655Z,4.13
2023-05-02T20:33:46.133Z,3.65
2023-05-02T20:37:13.664Z,4.82
2023-05-02T20:39:42.567Z,3.97
2023-05-02T20:42:10.159Z,4.03
2023-05-02T20:44:37.946Z,4.20
2023-05-02T20:47:05.373Z,4.15
2023-05-02T20:49:33.213Z,4.95
2023-05-02T20:52:06.829Z,4.25
2023-05-02T20:54:34.728Z,4.57
2023-05-02T20:57:03.623Z,4.32
2023-05-02T20:59:32.023Z,4.88
2023-05-02T21:01:59.740Z,4.60
2023-05-02T21:04:27.215Z,5.45
2023-05-02T21:06:56.880Z,4.70
2023-05-02T21:09:24.900Z,4.97
2023-05-02T21:11:52.378Z,4.43
2023-05-02T21:14:20.247Z,4.35
2023-05-02T21:16:50.424Z,5.10
2023-05-02T21:23:43.253Z,4.93
2023-05-02T21:26:10.755Z,4.68
2023-05-02T21:28:38.720Z,5.60
2023-05-02T21:31:07.724Z,4.68
2023-05-02T21:33:35.813Z,4.97
2023-05-02T21:36:03.548Z,4.72
2023-05-02T21:38:32.471Z,4.93
2023-05-02T21:41:04.835Z,5.43
2023-05-02T21:43:35.717Z,3.83
2023-05-02T21:46:03.180Z,4.45
2023-05-02T21:48:30.876Z,4.88
2023-05-02T21:50:58.534Z,4.90
2023-05-02T21:53:27.266Z,5.78
2023-05-02T21:55:55.461Z,5.40
2023-05-02T21:58:25.318Z,5.13
2023-05-02T22:00:52.705Z,4.72
2023-05-02T22:03:20.381Z,4.80
2023-05-02T22:05:50.151Z,5.22
2023-05-02T22:08:17.825Z,5.30
2023-05-02T22:10:46.710Z,5.25
2023-05-02T22:13:15.727Z,4.90
2023-05-02T22:15:45.722Z,5.90
2023-05-02T22:18:17.348Z,5.22
2023-05-02T22:20:45.318Z,5.72
2023-05-02T22:23:13.126Z,5.50
2023-05-02T22:25:42.393Z,6.32
2023-05-02T22:28:12.124Z,4.57
2023-05-02T22:30:43.297Z,5.38
2023-05-02T22:33:10.699Z,5.90
2023-05-02T22:35:38.719Z,5.50
2023-05-02T22:38:09.091Z,5.40
2023-05-02T22:40:36.725Z,5.40
2023-05-02T22:43:04.784Z,5.53
2023-05-02T22:45:32.120Z,5.05
2023-05-02T22:47:59.577Z,5.07
2023-05-02T22:50:27.789Z,5.78
2023-05-02T22:52:58.804Z,5.13
2023-05-02T22:55:26.403Z,4.90
2023-05-02T22:57:53.853Z,4.85
2023-05-02T23:00:22.638Z,5.43
2023-05-02T23:02:50.762Z,5.25
2023-05-02T23:05:18.306Z,5.10
2023-05-02T23:07:45.950Z,4.25
2023-05-02T23:10:13.606Z,5.25
2023-05-02T23:12:42.090Z,5.00
2023-05-02T23:15:10.017Z,4.68
2023-05-02T23:17:43.902Z,5.63
2023-05-02T23:20:11.718Z,5.57
2023-05-02T23:22:46.075Z,5.95
2023-05-02T23:25:16.362Z,4.80
2023-05-02T23:27:43.954Z,5.45
2023-05-02T23:30:12.089Z,5.68
2023-05-02T23:32:40.720Z,5.20
2023-05-02T23:35:08.798Z,5.75
2023-05-02T23:37:36.771Z,4.68
2023-05-02T23:40:05.453Z,4.53
2023-05-02T23:42:34.535Z,5.25
2023-05-02T23:45:02.292Z,5.47
2023-05-02T23:47:29.869Z,6.70
2023-05-02T23:49:57.517Z,5.30
2023-05-02T23:52:25.220Z,6.97
2023-05-02T23:54:53.048Z,6.15
2023-05-02T23:57:20.585Z,5.53
2023-05-02T23:59:48.088Z,5.57
